createdAt,value
2023-01-25T00:00:53.728Z,91.77
2023-01-25T00:01:53.771Z,91.77
2023-01-25T00:02:53.719Z,91.87
2023-01-25T00:03:53.688Z,91.77
2023-01-25T00:04:53.697Z,91.77
2023-01-25T00:05:53.848Z,91.77
2023-01-25T00:06:53.649Z,91.66
2023-01-25T00:07:53.640Z,91.56
2023-01-25T00:08:53.625Z,91.56
2023-01-25T00:09:53.617Z,91.25
2023-01-25T00:10:53.779Z,91.14
2023-01-25T00:11:53.589Z,91.14
2023-01-25T00:12:53.575Z,91.25
2023-01-25T00:13:53.564Z,91.28
2023-01-25T00:14:53.549Z,91.28
2023-01-25T00:15:53.705Z,91.28
2023-01-25T00:16:53.577Z,91.39
2023-01-25T00:17:53.683Z,91.39
2023-01-25T00:18:53.498Z,91.50
2023-01-25T00:19:53.485Z,91.50
2023-01-25T00:20:53.484Z,91.60
2023-01-25T00:21:53.511Z,91.71
2023-01-25T00:22:53.444Z,91.81
2023-01-25T00:23:53.463Z,91.81
2023-01-25T00:24:53.432Z,91.71
2023-01-25T00:25:53.402Z,91.60
2023-01-25T00:26:53.402Z,91.60
2023-01-25T00:27:53.382Z,91.71
2023-01-25T00:28:53.379Z,91.81
2023-01-25T00:29:53.370Z,91.81
2023-01-25T00:30:53.543Z,91.71
2023-01-25T00:31:53.373Z,91.60
2023-01-25T00:32:53.327Z,91.60
2023-01-25T00:33:53.310Z,91.50
2023-01-25T00:34:53.290Z,91.60
2023-01-25T00:35:53.629Z,91.60
2023-01-25T00:36:53.269Z,91.60
2023-01-25T00:37:53.260Z,91.60
2023-01-25T00:38:53.246Z,91.50
2023-01-25T00:39:53.232Z,91.60
2023-01-25T00:40:53.400Z,91.60
2023-01-25T00:41:53.230Z,91.60
2023-01-25T00:42:53.197Z,91.60
2023-01-25T00:43:53.207Z,91.71
2023-01-25T00:44:53.172Z,91.60
2023-01-25T00:45:53.402Z,91.50
2023-01-25T00:46:53.147Z,91.50
2023-01-25T00:47:53.138Z,91.50
2023-01-25T00:48:53.117Z,91.60
2023-01-25T00:49:53.115Z,91.71
2023-01-25T00:50:53.132Z,91.71
2023-01-25T00:51:53.275Z,91.71
2023-01-25T00:52:53.086Z,91.71
2023-01-25T00:53:53.077Z,91.71
2023-01-25T00:54:53.045Z,91.71
2023-01-25T00:55:53.046Z,91.60
2023-01-25T00:56:53.025Z,91.60
2023-01-25T00:57:53.194Z,91.50
2023-01-25T00:58:53.003Z,91.50
2023-01-25T00:59:52.996Z,91.50
2023-01-25T01:00:53.009Z,91.50
2023-01-25T01:01:53.141Z,91.50
2023-01-25T01:02:52.963Z,91.54
2023-01-25T01:03:52.952Z,91.50
2023-01-25T01:04:53.149Z,91.50
2023-01-25T01:05:52.932Z,91.60
2023-01-25T01:06:52.901Z,91.60
2023-01-25T01:07:52.896Z,91.71
2023-01-25T01:08:52.881Z,91.81
2023-01-25T01:09:53.045Z,91.71
2023-01-25T01:10:52.857Z,91.71
2023-01-25T01:11:53.028Z,91.71
2023-01-25T01:12:52.831Z,91.60
2023-01-25T01:13:52.820Z,91.60
2023-01-25T01:14:52.799Z,91.71
2023-01-25T01:15:52.795Z,91.71
2023-01-25T01:16:53.109Z,91.71
2023-01-25T01:17:52.767Z,91.71
2023-01-25T01:18:52.750Z,91.71
2023-01-25T01:19:52.742Z,91.71
2023-01-25T01:20:52.727Z,91.71
2023-01-25T01:21:52.908Z,91.60
2023-01-25T01:22:52.878Z,91.50
2023-01-25T01:23:52.722Z,91.43
2023-01-25T01:24:52.678Z,91.43
2023-01-25T01:25:52.678Z,91.43
2023-01-25T01:26:52.840Z,91.43
2023-01-25T01:27:52.697Z,91.54
2023-01-25T01:28:52.817Z,91.43
2023-01-25T01:29:52.615Z,91.43
2023-01-25T01:30:52.654Z,91.43
2023-01-25T01:31:52.718Z,91.54
2023-01-25T01:32:52.752Z,91.54
2023-01-25T01:33:52.753Z,91.54
2023-01-25T01:34:52.544Z,91.54
2023-01-25T01:35:52.567Z,91.64
2023-01-25T01:36:52.529Z,91.64
2023-01-25T01:37:52.528Z,91.64
2023-01-25T01:38:52.502Z,91.54
2023-01-25T01:39:52.681Z,91.43
2023-01-25T01:40:52.475Z,91.43
2023-01-25T01:41:52.474Z,91.54
2023-01-25T01:42:52.482Z,91.64
2023-01-25T01:43:52.454Z,91.75
2023-01-25T01:44:52.605Z,91.85
2023-01-25T01:45:52.658Z,91.85
2023-01-25T01:46:52.402Z,91.85
2023-01-25T01:47:52.399Z,91.85
2023-01-25T01:48:52.411Z,91.75
2023-01-25T01:49:52.372Z,91.75
2023-01-25T01:50:52.531Z,91.75
2023-01-25T01:51:52.382Z,91.75
2023-01-25T01:52:52.330Z,91.85
2023-01-25T01:53:52.321Z,91.85
2023-01-25T01:54:52.300Z,91.85
2023-01-25T01:55:52.336Z,91.96
2023-01-25T01:56:52.449Z,92.06
2023-01-25T01:57:52.267Z,92.06
2023-01-25T01:58:52.267Z,92.06
2023-01-25T01:59:52.255Z,92.16
2023-01-25T02:00:52.260Z,92.16
2023-01-25T02:01:52.406Z,92.06
2023-01-25T02:02:52.252Z,92.16
2023-01-25T02:03:52.202Z,92.16
2023-01-25T02:04:52.176Z,92.27
2023-01-25T02:05:52.348Z,92.38
2023-01-25T02:06:52.166Z,92.48
2023-01-25T02:07:52.157Z,92.48
2023-01-25T02:08:52.137Z,92.63
2023-01-25T02:09:52.135Z,92.79
2023-01-25T02:10:52.288Z,92.83
2023-01-25T02:11:52.093Z,92.79
2023-01-25T02:12:52.268Z,92.90
2023-01-25T02:13:52.074Z,92.94
2023-01-25T02:14:52.079Z,93.01
2023-01-25T02:15:52.103Z,93.01
2023-01-25T02:16:52.026Z,92.83
2023-01-25T02:17:52.212Z,92.73
2023-01-25T02:18:52.005Z,92.63
2023-01-25T02:19:52.034Z,92.63
2023-01-25T02:20:51.994Z,92.73
2023-01-25T02:21:52.000Z,92.83
2023-01-25T02:22:52.133Z,92.83
2023-01-25T02:23:51.998Z,92.83
2023-01-25T02:24:52.111Z,92.83
2023-01-25T02:25:51.934Z,92.73
2023-01-25T02:26:51.902Z,92.73
2023-01-25T02:27:51.922Z,92.83
2023-01-25T02:28:51.883Z,92.83
2023-01-25T02:29:52.083Z,92.94
2023-01-25T02:30:51.931Z,92.94
2023-01-25T02:31:51.924Z,92.94
2023-01-25T02:32:51.830Z,92.94
2023-01-25T02:33:51.840Z,92.94
2023-01-25T02:34:51.989Z,92.94
2023-01-25T02:35:51.799Z,93.04
2023-01-25T02:36:51.789Z,93.04
2023-01-25T02:37:51.783Z,93.15
2023-01-25T02:38:51.937Z,93.15
2023-01-25T02:39:51.748Z,93.26
2023-01-25T02:40:51.777Z,93.26
2023-01-25T02:41:51.744Z,93.15
2023-01-25T02:42:51.894Z,93.26
2023-01-25T02:43:51.713Z,93.15
2023-01-25T02:44:51.695Z,93.26
2023-01-25T02:45:51.754Z,93.26
2023-01-25T02:46:51.665Z,93.26
2023-01-25T02:47:51.667Z,93.36
2023-01-25T02:48:51.645Z,93.36
2023-01-25T02:49:51.807Z,93.46
2023-01-25T02:50:51.604Z,93.46
2023-01-25T02:51:51.617Z,93.46
2023-01-25T02:52:51.585Z,93.46
2023-01-25T02:53:51.574Z,93.67
2023-01-25T02:54:51.574Z,93.78
2023-01-25T02:55:51.623Z,93.78
2023-01-25T02:56:51.534Z,93.67
2023-01-25T02:57:51.534Z,93.67
2023-01-25T02:58:51.513Z,93.57
2023-01-25T02:59:51.512Z,93.57
2023-01-25T03:00:51.508Z,93.57
2023-01-25T03:01:51.675Z,93.57
2023-01-25T03:02:51.518Z,93.57
2023-01-25T03:03:51.462Z,93.36
2023-01-25T03:04:51.462Z,93.36
2023-01-25T03:05:51.448Z,93.36
2023-01-25T03:06:51.420Z,93.36
2023-01-25T03:07:51.578Z,93.46
2023-01-25T03:08:51.390Z,93.46
2023-01-25T03:09:51.378Z,93.46
2023-01-25T03:10:51.371Z,93.36
2023-01-25T03:11:51.422Z,93.36
2023-01-25T03:12:51.518Z,93.46
2023-01-25T03:13:51.328Z,93.57
2023-01-25T03:14:51.308Z,93.57
2023-01-25T03:15:51.640Z,93.57
2023-01-25T03:16:51.312Z,93.67
2023-01-25T03:17:51.293Z,93.67
2023-01-25T03:18:51.267Z,93.78
2023-01-25T03:19:51.278Z,93.78
2023-01-25T03:20:51.248Z,93.88
2023-01-25T03:21:51.242Z,93.88
2023-01-25T03:22:51.395Z,93.99
2023-01-25T03:23:51.312Z,93.99
2023-01-25T03:24:51.215Z,94.09
2023-01-25T03:25:51.176Z,94.20
2023-01-25T03:26:51.167Z,94.20
2023-01-25T03:27:51.156Z,94.20
2023-01-25T03:28:51.134Z,94.20
2023-01-25T03:29:51.171Z,94.09
2023-01-25T03:30:51.291Z,94.09
2023-01-25T03:31:51.266Z,93.99
2023-01-25T03:32:51.084Z,93.99
2023-01-25T03:33:51.093Z,94.09
2023-01-25T03:34:51.397Z,94.09
2023-01-25T03:35:51.095Z,94.09
2023-01-25T03:36:51.043Z,94.09
2023-01-25T03:37:51.044Z,94.09
2023-01-25T03:38:51.032Z,94.09
2023-01-25T03:39:51.002Z,94.09
2023-01-25T03:40:50.997Z,94.09
2023-01-25T03:41:50.985Z,94.09
2023-01-25T03:42:50.983Z,93.99
2023-01-25T03:43:51.023Z,94.09
2023-01-25T03:44:50.951Z,94.13
2023-01-25T03:45:50.930Z,94.13
2023-01-25T03:46:50.983Z,94.24
2023-01-25T03:47:51.006Z,94.24
2023-01-25T03:48:50.890Z,94.34
2023-01-25T03:49:50.940Z,94.45
2023-01-25T03:50:50.923Z,94.56
2023-01-25T03:51:50.874Z,94.56
2023-01-25T03:52:50.852Z,94.56
2023-01-25T03:53:51.038Z,94.56
2023-01-25T03:54:50.828Z,94.66
2023-01-25T03:55:51.179Z,94.66
2023-01-25T03:56:50.982Z,94.66
2023-01-25T03:57:50.818Z,94.76
2023-01-25T03:58:50.778Z,94.66
2023-01-25T03:59:50.766Z,94.66
2023-01-25T04:00:50.808Z,94.76
2023-01-25T04:01:51.033Z,94.76
2023-01-25T04:02:50.726Z,94.76
2023-01-25T04:03:50.710Z,94.87
2023-01-25T04:04:50.696Z,94.87
2023-01-25T04:05:50.709Z,94.97
2023-01-25T04:06:50.859Z,94.97
2023-01-25T04:07:50.665Z,95.07
2023-01-25T04:08:50.644Z,95.18
2023-01-25T04:09:50.648Z,95.18
2023-01-25T04:10:50.625Z,95.29
2023-01-25T04:11:50.798Z,95.39
2023-01-25T04:12:50.605Z,95.50
2023-01-25T04:13:50.587Z,95.50
2023-01-25T04:14:50.574Z,95.50
2023-01-25T04:15:50.567Z,95.50
2023-01-25T04:16:50.821Z,95.60
2023-01-25T04:17:50.545Z,95.60
2023-01-25T04:18:50.537Z,95.60
2023-01-25T04:19:50.513Z,95.70
2023-01-25T04:20:50.506Z,95.81
2023-01-25T04:21:50.501Z,95.81
2023-01-25T04:22:50.475Z,95.70
2023-01-25T04:23:50.483Z,95.81
2023-01-25T04:24:50.456Z,95.81
2023-01-25T04:25:50.441Z,95.92
2023-01-25T04:26:50.772Z,96.02
2023-01-25T04:27:50.599Z,96.12
2023-01-25T04:28:50.405Z,96.23
2023-01-25T04:29:50.411Z,96.33
2023-01-25T04:30:50.375Z,96.33
2023-01-25T04:31:50.457Z,96.33
2023-01-25T04:32:50.612Z,96.44
2023-01-25T04:33:51.340Z,96.55
2023-01-25T04:34:50.329Z,96.55
2023-01-25T04:35:50.321Z,96.55
2023-01-25T04:36:50.491Z,96.55
2023-01-25T04:37:50.297Z,96.55
2023-01-25T04:38:50.292Z,96.44
2023-01-25T04:39:50.276Z,96.55
2023-01-25T04:40:50.256Z,96.55
2023-01-25T04:41:50.250Z,96.55
2023-01-25T04:42:50.260Z,96.55
2023-01-25T04:43:50.489Z,96.65
2023-01-25T04:44:50.197Z,96.65
2023-01-25T04:45:50.260Z,96.75
2023-01-25T04:46:50.175Z,96.86
2023-01-25T04:47:50.166Z,96.96
2023-01-25T04:48:50.325Z,96.96
2023-01-25T04:49:50.184Z,97.17
2023-01-25T04:50:50.147Z,97.28
2023-01-25T04:51:50.125Z,97.28
2023-01-25T04:52:50.106Z,97.42
2023-01-25T04:53:50.274Z,97.38
2023-01-25T04:54:50.076Z,97.59
2023-01-25T04:55:50.094Z,97.69
2023-01-25T04:56:50.064Z,97.80
2023-01-25T04:57:50.053Z,97.80
2023-01-25T04:58:50.323Z,97.91
2023-01-25T04:59:50.026Z,97.91
2023-01-25T05:00:50.042Z,98.01
2023-01-25T05:01:50.023Z,98.01
2023-01-25T05:02:50.102Z,98.22
2023-01-25T05:03:50.144Z,98.22
2023-01-25T05:04:49.960Z,98.32
2023-01-25T05:05:49.953Z,98.32
2023-01-25T05:06:49.932Z,98.32
2023-01-25T05:07:49.951Z,98.32
2023-01-25T05:08:49.935Z,98.43
2023-01-25T05:09:49.902Z,98.54
2023-01-25T05:10:49.903Z,98.54
2023-01-25T05:11:50.079Z,98.64
2023-01-25T05:12:49.858Z,98.64
2023-01-25T05:13:49.862Z,98.74
2023-01-25T05:14:49.841Z,98.74
2023-01-25T05:15:49.828Z,98.85
2023-01-25T05:16:50.044Z,98.85
2023-01-25T05:17:49.809Z,98.85
2023-01-25T05:18:50.154Z,98.95
2023-01-25T05:19:49.777Z,99.05
2023-01-25T05:20:49.758Z,99.05
2023-01-25T05:21:49.757Z,99.05
2023-01-25T05:22:49.749Z,99.05
2023-01-25T05:23:49.935Z,99.16
2023-01-25T05:24:49.733Z,99.16
2023-01-25T05:25:49.767Z,99.27
2023-01-25T05:26:49.689Z,99.37
2023-01-25T05:27:49.675Z,99.37
2023-01-25T05:28:49.665Z,99.37
2023-01-25T05:29:49.863Z,99.48
2023-01-25T05:30:49.718Z,99.48
2023-01-25T05:31:49.759Z,99.48
2023-01-25T05:32:49.616Z,99.48
2023-01-25T05:33:49.603Z,99.58
2023-01-25T05:34:49.766Z,99.58
2023-01-25T05:35:49.588Z,99.58
2023-01-25T05:36:49.568Z,99.58
2023-01-25T05:37:49.574Z,99.58
2023-01-25T05:38:49.534Z,99.58
2023-01-25T05:39:49.753Z,99.58
2023-01-25T05:40:49.531Z,99.58
2023-01-25T05:41:49.515Z,99.58
2023-01-25T05:42:49.491Z,99.58
2023-01-25T05:43:49.477Z,99.58
2023-01-25T05:44:49.466Z,99.58
2023-01-25T05:45:49.497Z,99.58
2023-01-25T05:46:49.451Z,99.58
2023-01-25T05:47:49.442Z,99.58
2023-01-25T05:48:49.427Z,99.58
2023-01-25T05:49:49.430Z,99.58
2023-01-25T05:50:49.400Z,99.68
2023-01-25T05:51:49.408Z,99.68
2023-01-25T05:52:49.371Z,99.68
2023-01-25T05:53:49.356Z,99.68
2023-01-25T05:54:49.349Z,99.68
2023-01-25T05:55:49.349Z,99.68
2023-01-25T05:56:49.329Z,99.79
2023-01-25T05:57:49.320Z,99.79
2023-01-25T05:58:49.289Z,99.79
2023-01-25T05:59:49.295Z,99.79
2023-01-25T06:00:49.301Z,99.79
2023-01-25T06:01:49.276Z,99.90
2023-01-25T06:02:49.355Z,99.90
2023-01-25T06:03:49.235Z,99.90
2023-01-25T06:04:49.225Z,99.90
2023-01-25T06:05:49.224Z,99.99
2023-01-25T06:06:49.189Z,99.99
2023-01-25T06:07:49.194Z,99.99
2023-01-25T06:08:49.173Z,99.99
2023-01-25T06:09:49.176Z,99.99
2023-01-25T06:10:49.169Z,99.99
2023-01-25T06:11:49.144Z,99.99
2023-01-25T06:12:49.453Z,99.99
2023-01-25T06:13:49.110Z,99.99
2023-01-25T06:14:49.096Z,99.99
2023-01-25T06:15:49.135Z,99.99
2023-01-25T06:16:49.062Z,99.99
2023-01-25T06:17:49.232Z,99.99
2023-01-25T06:18:49.062Z,99.99
2023-01-25T06:19:49.053Z,99.99
2023-01-25T06:20:49.051Z,99.99
2023-01-25T06:21:49.012Z,99.99
2023-01-25T06:22:49.184Z,99.99
2023-01-25T06:23:49.120Z,99.99
2023-01-25T06:24:48.974Z,99.99
2023-01-25T06:25:48.969Z,99.99
2023-01-25T06:26:48.993Z,99.99
2023-01-25T06:27:49.177Z,99.99
2023-01-25T06:28:48.935Z,99.99
2023-01-25T06:29:48.922Z,99.99
2023-01-25T06:30:49.016Z,99.99
2023-01-25T06:31:48.903Z,99.99
2023-01-25T06:32:48.877Z,99.99
2023-01-25T06:33:48.915Z,99.99
2023-01-25T06:34:48.885Z,99.99
2023-01-25T06:35:48.857Z,99.99
2023-01-25T06:36:48.874Z,99.99
2023-01-25T06:37:48.806Z,99.99
2023-01-25T06:38:48.798Z,99.99
2023-01-25T06:39:48.801Z,99.99
2023-01-25T06:40:48.775Z,99.99
2023-01-25T06:41:48.932Z,99.99
2023-01-25T06:42:48.755Z,99.99
2023-01-25T06:43:48.938Z,99.99
2023-01-25T06:44:48.733Z,99.99
2023-01-25T06:45:48.737Z,99.99
2023-01-25T06:46:48.812Z,99.99
2023-01-25T06:47:48.686Z,99.99
2023-01-25T06:48:48.696Z,99.99
2023-01-25T06:49:48.663Z,99.99
2023-01-25T06:50:48.662Z,99.99
2023-01-25T06:51:48.822Z,99.99
2023-01-25T06:52:48.636Z,99.99
2023-01-25T06:53:48.625Z,99.99
2023-01-25T06:54:48.601Z,99.99
2023-01-25T06:55:48.601Z,99.99
2023-01-25T06:56:48.580Z,99.99
2023-01-25T06:57:48.741Z,99.99
2023-01-25T06:58:48.577Z,99.99
2023-01-25T06:59:48.547Z,99.99
2023-01-25T07:00:48.558Z,99.99
2023-01-25T07:01:48.753Z,99.99
2023-01-25T07:02:48.589Z,99.99
2023-01-25T07:03:48.495Z,99.99
2023-01-25T07:04:48.490Z,99.99
2023-01-25T07:05:48.457Z,99.99
2023-01-25T07:06:48.628Z,99.99
2023-01-25T07:07:48.438Z,99.99
2023-01-25T07:08:48.432Z,99.99
2023-01-25T07:09:48.448Z,99.99
2023-01-25T07:10:48.417Z,99.99
2023-01-25T07:11:48.396Z,99.99
2023-01-25T07:12:48.380Z,99.99
2023-01-25T07:13:48.399Z,99.99
2023-01-25T07:14:48.356Z,99.99
2023-01-25T07:15:48.485Z,99.99
2023-01-25T07:16:48.361Z,99.99
2023-01-25T07:17:48.315Z,99.99
2023-01-25T07:18:48.319Z,99.99
2023-01-25T07:19:48.288Z,99.99
2023-01-25T07:20:48.293Z,99.99
2023-01-25T07:21:48.268Z,99.99
2023-01-25T07:22:48.293Z,99.99
2023-01-25T07:23:48.436Z,99.99
2023-01-25T07:24:48.223Z,99.99
2023-01-25T07:25:48.219Z,99.99
2023-01-25T07:26:48.212Z,99.99
2023-01-25T07:27:48.195Z,99.99
2023-01-25T07:28:48.216Z,99.99
2023-01-25T07:29:48.162Z,99.99
2023-01-25T07:30:48.153Z,99.99
2023-01-25T07:31:48.219Z,99.99
2023-01-25T07:32:48.142Z,99.99
2023-01-25T07:33:48.121Z,99.99
2023-01-25T07:34:48.287Z,99.99
2023-01-25T07:35:48.090Z,99.99
2023-01-25T07:36:48.100Z,99.99
2023-01-25T07:37:48.099Z,99.99
2023-01-25T07:38:48.067Z,99.99
2023-01-25T07:39:48.050Z,99.99
2023-01-25T07:40:48.050Z,99.99
2023-01-25T07:41:48.208Z,99.99
2023-01-25T07:42:48.008Z,99.99
2023-01-25T07:43:47.991Z,99.99
2023-01-25T07:44:47.980Z,99.99
2023-01-25T07:45:47.976Z,99.99
2023-01-25T07:46:48.185Z,99.99
2023-01-25T07:47:48.139Z,99.99
2023-01-25T07:48:47.937Z,99.99
2023-01-25T07:49:47.917Z,99.99
2023-01-25T07:50:47.915Z,99.99
2023-01-25T07:51:47.916Z,99.99
2023-01-25T07:52:47.920Z,99.99
2023-01-25T07:53:48.059Z,99.99
2023-01-25T07:54:49.145Z,99.99
2023-01-25T07:55:47.850Z,99.99
2023-01-25T07:56:47.835Z,99.99
2023-01-25T07:57:47.929Z,99.99
2023-01-25T07:58:47.993Z,99.99
2023-01-25T07:59:47.796Z,99.99
2023-01-25T08:00:47.795Z,99.99
2023-01-25T08:01:47.807Z,99.99
2023-01-25T08:02:47.954Z,99.99
2023-01-25T08:03:47.774Z,99.99
2023-01-25T08:04:47.733Z,99.99
2023-01-25T08:05:47.773Z,99.99
2023-01-25T08:06:47.721Z,99.99
2023-01-25T08:07:47.695Z,99.99
2023-01-25T08:08:47.690Z,99.99
2023-01-25T08:09:47.680Z,99.99
2023-01-25T08:10:47.862Z,99.99
2023-01-25T08:11:47.655Z,99.99
2023-01-25T08:12:47.811Z,99.99
2023-01-25T08:13:47.629Z,99.99
2023-01-25T08:14:47.610Z,99.99
2023-01-25T08:15:47.601Z,99.99
2023-01-25T08:16:47.603Z,99.99
2023-01-25T08:17:47.756Z,99.99
2023-01-25T08:18:47.564Z,99.99
2023-01-25T08:19:47.558Z,99.99
2023-01-25T08:20:47.532Z,99.99
2023-01-25T08:21:47.527Z,99.99
2023-01-25T08:22:47.709Z,99.99
2023-01-25T08:23:47.565Z,99.99
2023-01-25T08:24:47.503Z,99.99
2023-01-25T08:25:47.510Z,99.99
2023-01-25T08:26:47.465Z,99.99
2023-01-25T08:27:47.470Z,99.99
2023-01-25T08:28:47.467Z,99.99
2023-01-25T08:29:47.607Z,99.99
2023-01-25T08:30:56.975Z,99.99
2023-01-25T08:31:48.495Z,99.99
2023-01-25T08:32:47.385Z,99.99
2023-01-25T08:33:47.401Z,99.99
2023-01-25T08:34:47.541Z,99.99
2023-01-25T08:35:47.371Z,99.99
2023-01-25T08:36:47.545Z,99.99
2023-01-25T08:37:47.340Z,99.99
2023-01-25T08:38:47.340Z,99.99
2023-01-25T08:39:47.360Z,99.99
2023-01-25T08:40:47.293Z,99.99
2023-01-25T08:41:47.458Z,99.99
2023-01-25T08:42:47.270Z,99.99
2023-01-25T08:43:47.295Z,99.99
2023-01-25T08:44:47.289Z,99.99
2023-01-25T08:45:47.232Z,99.99
2023-01-25T08:46:47.222Z,99.99
2023-01-25T08:47:47.229Z,99.99
2023-01-25T08:48:47.391Z,99.99
2023-01-25T08:49:47.192Z,99.99
2023-01-25T08:50:47.179Z,99.99
2023-01-25T08:51:47.155Z,99.99
2023-01-25T08:52:47.148Z,99.99
2023-01-25T08:53:47.316Z,99.99
2023-01-25T08:54:47.121Z,99.99
2023-01-25T08:55:47.131Z,99.99
2023-01-25T08:56:47.122Z,99.99
2023-01-25T08:57:47.101Z,99.99
2023-01-25T08:58:47.072Z,99.99
2023-01-25T08:59:47.083Z,99.99
2023-01-25T09:00:47.055Z,99.99
2023-01-25T09:01:47.048Z,99.99
2023-01-25T09:02:47.208Z,99.99
2023-01-25T09:03:47.144Z,99.99
2023-01-25T09:04:46.998Z,99.99
2023-01-25T09:05:46.986Z,99.99
2023-01-25T09:06:46.965Z,99.99
2023-01-25T09:07:46.957Z,99.99
2023-01-25T09:08:47.120Z,99.99
2023-01-25T09:09:46.941Z,99.99
2023-01-25T09:10:46.915Z,99.99
2023-01-25T09:11:46.906Z,99.99
2023-01-25T09:12:46.895Z,99.99
2023-01-25T09:13:46.903Z,99.99
2023-01-25T09:14:47.047Z,99.99
2023-01-25T09:15:46.893Z,99.99
2023-01-25T09:16:46.889Z,99.99
2023-01-25T09:17:46.889Z,99.99
2023-01-25T09:18:48.086Z,99.99
2023-01-25T09:19:46.992Z,99.99
2023-01-25T09:20:46.981Z,99.99
2023-01-25T09:21:46.792Z,99.99
2023-01-25T09:22:46.771Z,99.99
2023-01-25T09:23:51.278Z,99.99
2023-01-25T09:24:47.945Z,99.99
2023-01-25T09:25:46.931Z,99.99
2023-01-25T09:26:55.956Z,99.99
2023-01-25T09:27:47.722Z,99.99
2023-01-25T09:28:46.690Z,99.99
2023-01-25T09:30:00.997Z,99.99
2023-01-25T09:30:59.187Z,99.99
2023-01-25T09:31:47.834Z,99.99
2023-01-25T09:32:46.720Z,99.99
2023-01-25T09:33:46.640Z,99.99
2023-01-25T09:34:46.627Z,99.99
2023-01-25T09:35:46.792Z,99.99
2023-01-25T09:36:46.646Z,99.99
2023-01-25T09:37:46.582Z,99.99
2023-01-25T09:38:46.771Z,99.99
2023-01-25T09:39:46.593Z,99.99
2023-01-25T09:40:46.548Z,99.99
2023-01-25T09:41:46.763Z,99.99
2023-01-25T09:42:46.536Z,99.99
2023-01-25T09:43:46.568Z,99.99
2023-01-25T09:44:46.499Z,99.99
2023-01-25T09:45:46.488Z,99.99
2023-01-25T09:46:46.727Z,99.99
2023-01-25T09:47:46.468Z,99.99
2023-01-25T09:48:47.472Z,99.99
2023-01-25T09:49:46.435Z,99.99
2023-01-25T09:50:46.450Z,99.99
2023-01-25T09:51:46.585Z,99.99
2023-01-25T09:52:46.394Z,99.99
2023-01-25T09:53:46.396Z,99.99
2023-01-25T09:54:47.288Z,99.99
2023-01-25T09:55:46.393Z,99.99
2023-01-25T09:56:46.542Z,99.99
2023-01-25T09:57:46.517Z,99.99
2023-01-25T09:58:46.324Z,99.99
2023-01-25T09:59:46.313Z,99.99
2023-01-25T10:00:46.313Z,99.99
2023-01-25T10:01:46.359Z,99.99
2023-01-25T10:02:46.501Z,99.99
2023-01-25T10:03:46.263Z,99.99
2023-01-25T10:04:46.255Z,99.99
2023-01-25T10:05:46.240Z,99.99
2023-01-25T10:06:55.246Z,99.99
2023-01-25T10:07:47.401Z,99.99
2023-01-25T10:08:46.460Z,99.99
2023-01-25T10:09:46.219Z,99.99
2023-01-25T10:10:46.185Z,99.99
2023-01-25T10:11:46.170Z,99.99
2023-01-25T10:12:46.164Z,99.99
2023-01-25T10:13:46.187Z,99.99
2023-01-25T10:14:46.311Z,99.99
2023-01-25T10:15:46.143Z,99.99
2023-01-25T10:16:46.166Z,99.99
2023-01-25T10:17:46.297Z,99.99
2023-01-25T10:18:46.098Z,99.99
2023-01-25T10:19:46.241Z,99.99
2023-01-25T10:20:46.057Z,99.99
2023-01-25T10:21:46.053Z,99.99
2023-01-25T10:22:46.227Z,99.99
2023-01-25T10:23:46.063Z,99.99
2023-01-25T10:24:46.188Z,99.99
2023-01-25T10:25:46.000Z,99.99
2023-01-25T10:26:45.990Z,99.99
2023-01-25T10:27:45.984Z,99.99
2023-01-25T10:28:45.967Z,99.99
2023-01-25T10:29:46.115Z,99.99
2023-01-25T10:30:46.004Z,99.99
2023-01-25T10:31:45.942Z,99.99
2023-01-25T10:32:55.323Z,99.99
2023-01-25T10:33:46.904Z,99.99
2023-01-25T10:34:55.971Z,99.99
2023-01-25T10:35:47.845Z,99.99
2023-01-25T10:36:45.882Z,99.99
2023-01-25T10:37:45.853Z,99.99
2023-01-25T10:38:46.030Z,99.99
2023-01-25T10:39:45.820Z,99.99
2023-01-25T10:40:45.812Z,99.99
2023-01-25T10:41:47.391Z,99.99
2023-01-25T10:42:45.791Z,99.99
2023-01-25T10:43:45.969Z,99.99
2023-01-25T10:44:45.774Z,99.99
2023-01-25T10:45:45.758Z,99.99
2023-01-25T10:46:45.784Z,99.99
2023-01-25T10:47:45.733Z,99.99
2023-01-25T10:48:45.731Z,99.99
2023-01-25T10:49:45.708Z,99.99
2023-01-25T10:50:45.691Z,99.99
2023-01-25T10:51:45.699Z,99.99
2023-01-25T10:52:45.659Z,99.99
2023-01-25T10:53:45.650Z,99.99
2023-01-25T10:54:45.648Z,99.99
2023-01-25T10:55:45.629Z,99.99
2023-01-25T10:56:45.644Z,99.99
2023-01-25T10:57:45.619Z,99.99
2023-01-25T10:58:45.607Z,99.99
2023-01-25T10:59:45.573Z,99.99
2023-01-25T11:00:45.575Z,99.99
2023-01-25T11:01:45.620Z,99.99
2023-01-25T11:02:45.609Z,99.99
2023-01-25T11:03:45.526Z,99.99
2023-01-25T11:04:45.546Z,99.99
2023-01-25T11:05:45.853Z,99.99
2023-01-25T11:06:45.654Z,99.99
2023-01-25T11:07:45.542Z,99.99
2023-01-25T11:08:45.545Z,99.99
2023-01-25T11:09:45.535Z,99.99
2023-01-25T11:10:45.639Z,99.99
2023-01-25T11:11:45.442Z,99.99
2023-01-25T11:12:45.413Z,99.99
2023-01-25T11:13:45.424Z,99.99
2023-01-25T11:14:45.408Z,99.99
2023-01-25T11:15:45.458Z,99.99
2023-01-25T11:16:45.384Z,99.99
2023-01-25T11:17:45.352Z,99.99
2023-01-25T11:18:45.341Z,99.99
2023-01-25T11:19:45.333Z,99.99
2023-01-25T11:20:45.344Z,99.99
2023-01-25T11:21:45.350Z,99.99
2023-01-25T11:22:45.298Z,99.99
2023-01-25T11:23:45.354Z,99.99
2023-01-25T11:24:45.281Z,99.99
2023-01-25T11:25:45.272Z,99.99
2023-01-25T11:26:45.259Z,99.99
2023-01-25T11:27:45.247Z,99.99
2023-01-25T11:28:45.231Z,99.99
2023-01-25T11:29:45.200Z,99.99
2023-01-25T11:30:45.339Z,99.99
2023-01-25T11:31:45.233Z,99.99
2023-01-25T11:32:45.198Z,99.99
2023-01-25T11:33:45.145Z,99.99
2023-01-25T11:34:45.149Z,99.99
2023-01-25T11:35:45.127Z,99.99
2023-01-25T11:36:45.124Z,99.99
2023-01-25T11:37:45.282Z,99.99
2023-01-25T11:38:45.096Z,99.99
2023-01-25T11:39:45.088Z,99.99
2023-01-25T11:40:45.088Z,99.99
2023-01-25T11:41:45.088Z,99.99
2023-01-25T11:42:45.045Z,99.99
2023-01-25T11:43:45.045Z,99.99
2023-01-25T11:44:45.027Z,99.99
2023-01-25T11:45:45.045Z,99.99
2023-01-25T11:46:45.032Z,99.91
2023-01-25T11:47:44.978Z,99.80
2023-01-25T11:48:44.982Z,99.70
2023-01-25T11:49:45.046Z,99.59
2023-01-25T11:50:44.962Z,99.54
2023-01-25T11:51:45.103Z,99.43
2023-01-25T11:52:45.103Z,99.32
2023-01-25T11:53:44.906Z,99.32
2023-01-25T11:54:44.901Z,99.43
2023-01-25T11:55:44.891Z,99.38
2023-01-25T11:56:45.072Z,99.38
2023-01-25T11:57:45.160Z,99.28
2023-01-25T11:58:44.842Z,99.32
2023-01-25T11:59:44.979Z,99.32
2023-01-25T12:00:44.833Z,99.32
2023-01-25T12:01:44.810Z,99.32
2023-01-25T12:02:44.927Z,99.38
2023-01-25T12:03:44.839Z,99.38
2023-01-25T12:04:44.769Z,99.38
2023-01-25T12:05:44.756Z,99.38
2023-01-25T12:06:44.751Z,99.38
2023-01-25T12:07:44.738Z,99.38
2023-01-25T12:08:44.900Z,99.38
2023-01-25T12:09:44.880Z,99.49
2023-01-25T12:10:44.713Z,99.28
2023-01-25T12:11:44.692Z,99.28
2023-01-25T12:12:44.676Z,99.18
2023-01-25T12:13:44.659Z,99.18
2023-01-25T12:14:44.867Z,99.18
2023-01-25T12:15:44.658Z,98.86
2023-01-25T12:16:44.680Z,98.34
2023-01-25T12:17:44.624Z,98.28
2023-01-25T12:18:44.595Z,98.28
2023-01-25T12:19:44.606Z,98.28
2023-01-25T12:20:44.594Z,98.28
2023-01-25T12:21:44.595Z,98.38
2023-01-25T12:22:44.560Z,98.28
2023-01-25T12:23:44.555Z,98.28
2023-01-25T12:24:44.534Z,98.28
2023-01-25T12:25:44.696Z,98.28
2023-01-25T12:26:44.507Z,98.28
2023-01-25T12:27:44.504Z,98.38
2023-01-25T12:28:44.478Z,98.49
2023-01-25T12:29:44.475Z,98.49
2023-01-25T12:30:44.545Z,98.49
2023-01-25T12:31:44.497Z,98.44
2023-01-25T12:32:44.592Z,98.44
2023-01-25T12:33:44.442Z,98.55
2023-01-25T12:34:45.352Z,98.55
2023-01-25T12:35:44.390Z,98.55
2023-01-25T12:36:44.382Z,98.55
2023-01-25T12:37:44.381Z,98.55
2023-01-25T12:38:44.351Z,98.34
2023-01-25T12:39:44.341Z,98.24
2023-01-25T12:40:44.341Z,98.24
2023-01-25T12:41:44.324Z,98.24
2023-01-25T12:42:44.479Z,98.24
2023-01-25T12:43:44.332Z,98.24
2023-01-25T12:44:44.288Z,97.92
2023-01-25T12:45:44.259Z,97.61
2023-01-25T12:46:44.300Z,97.61
2023-01-25T12:47:44.249Z,97.71
2023-01-25T12:48:44.230Z,97.61
2023-01-25T12:49:44.236Z,97.61
2023-01-25T12:50:44.378Z,97.50
2023-01-25T12:51:44.220Z,97.39
2023-01-25T12:52:44.187Z,97.39